createdAt,value
2018-12-27T00:00:40.366Z,45.56
2018-12-27T00:01:40.353Z,45.06
2018-12-27T00:02:40.327Z,45.46
2018-12-27T00:03:40.328Z,45.46
2018-12-27T00:04:40.303Z,45.36
2018-12-27T00:05:40.317Z,45.26
2018-12-27T00:06:40.423Z,45.36
2018-12-27T00:07:40.287Z,45.26
2018-12-27T00:08:40.328Z,45.66
2018-12-27T00:09:40.254Z,45.16
2018-12-27T00:10:40.236Z,45.26
2018-12-27T00:11:40.293Z,45.46
2018-12-27T00:12:40.230Z,45.66
2018-12-27T00:13:40.210Z,45.86
2018-12-27T00:14:40.201Z,45.68
2018-12-27T00:15:40.182Z,45.78
2018-12-27T00:16:40.205Z,45.86
2018-12-27T00:17:40.161Z,45.66
2018-12-27T00:18:40.236Z,45.66
2018-12-27T00:19:40.136Z,45.66
2018-12-27T00:20:40.141Z,45.96
2018-12-27T00:21:40.131Z,45.66
2018-12-27T00:22:40.106Z,45.06
2018-12-27T00:23:40.099Z,45.46
2018-12-27T00:24:40.105Z,45.66
2018-12-27T00:25:40.134Z,45.46
2018-12-27T00:26:40.088Z,45.46
2018-12-27T00:27:40.049Z,45.06
2018-12-27T00:28:40.049Z,45.46
2018-12-27T00:29:40.352Z,45.26
2018-12-27T00:30:40.025Z,45.24
2018-12-27T00:31:40.020Z,45.16
2018-12-27T00:32:40.001Z,45.54
2018-12-27T00:33:39.982Z,45.34
2018-12-27T00:34:39.976Z,45.34
2018-12-27T00:35:39.978Z,45.64
2018-12-27T00:36:39.978Z,45.14
2018-12-27T00:37:39.938Z,45.43
2018-12-27T00:38:39.925Z,45.14
2018-12-27T00:39:39.914Z,45.04
2018-12-27T00:40:39.915Z,45.34
2018-12-27T00:41:39.912Z,45.24
2018-12-27T00:42:39.983Z,45.14
2018-12-27T00:43:40.099Z,45.34
2018-12-27T00:44:39.858Z,44.93
2018-12-27T00:45:39.851Z,45.04
2018-12-27T00:46:39.874Z,45.34
2018-12-27T00:47:39.860Z,45.34
2018-12-27T00:48:39.821Z,45.34
2018-12-27T00:49:39.813Z,45.43
2018-12-27T00:50:39.791Z,45.43
2018-12-27T00:51:39.801Z,45.64
2018-12-27T00:52:39.775Z,45.43
2018-12-27T00:53:39.760Z,45.24
2018-12-27T00:54:39.920Z,45.04
2018-12-27T00:55:39.743Z,45.14
2018-12-27T00:56:39.773Z,45.54
2018-12-27T00:57:39.716Z,45.14
2018-12-27T00:58:39.736Z,45.43
2018-12-27T00:59:39.719Z,46.14
2018-12-27T01:00:39.770Z,45.76
2018-12-27T01:01:39.753Z,45.86
2018-12-27T01:02:39.849Z,45.54
2018-12-27T01:03:39.654Z,45.56
2018-12-27T01:04:39.652Z,45.34
2018-12-27T01:05:39.628Z,45.64
2018-12-27T01:06:39.615Z,45.66
2018-12-27T01:07:39.620Z,45.56
2018-12-27T01:08:39.598Z,45.56
2018-12-27T01:09:39.595Z,45.36
2018-12-27T01:10:39.568Z,45.64
2018-12-27T01:11:39.564Z,45.56
2018-12-27T01:12:39.570Z,46.16
2018-12-27T01:13:39.536Z,46.06
2018-12-27T01:14:39.540Z,45.76
2018-12-27T01:15:39.528Z,46.46
2018-12-27T01:16:39.641Z,46.36
2018-12-27T01:17:39.509Z,46.16
2018-12-27T01:18:39.487Z,46.36
2018-12-27T01:19:39.469Z,46.16
2018-12-27T01:20:39.464Z,46.66
2018-12-27T01:21:39.474Z,46.68
2018-12-27T01:22:39.459Z,46.66
2018-12-27T01:23:39.436Z,46.68
2018-12-27T01:24:39.451Z,46.78
2018-12-27T01:25:39.403Z,46.58
2018-12-27T01:26:39.392Z,46.76
2018-12-27T01:27:39.412Z,46.56
2018-12-27T01:28:39.371Z,46.46
2018-12-27T01:29:39.356Z,46.56
2018-12-27T01:30:39.352Z,46.46
2018-12-27T01:31:39.347Z,45.96
2018-12-27T01:32:39.360Z,46.16
2018-12-27T01:33:39.313Z,45.08
2018-12-27T01:34:39.330Z,45.96
2018-12-27T01:35:39.291Z,45.86
2018-12-27T01:36:39.279Z,45.26
2018-12-27T01:37:39.289Z,45.08
2018-12-27T01:38:39.267Z,45.38
2018-12-27T01:39:39.245Z,45.38
2018-12-27T01:40:39.251Z,45.08
2018-12-27T01:41:39.223Z,45.36
2018-12-27T01:42:39.234Z,45.08
2018-12-27T01:43:39.202Z,45.16
2018-12-27T01:44:39.196Z,45.76
2018-12-27T01:45:39.181Z,45.36
2018-12-27T01:46:39.168Z,45.06
2018-12-27T01:47:39.188Z,45.06
2018-12-27T01:48:39.154Z,44.26
2018-12-27T01:49:39.136Z,43.76
2018-12-27T01:50:39.133Z,44.46
2018-12-27T01:51:39.116Z,44.76
2018-12-27T01:52:39.125Z,44.76
2018-12-27T01:53:39.097Z,44.56
2018-12-27T01:54:39.093Z,44.46
2018-12-27T01:55:39.074Z,44.16
2018-12-27T01:56:39.056Z,43.85
2018-12-27T01:57:39.074Z,44.84
2018-12-27T01:58:39.040Z,43.85
2018-12-27T01:59:39.031Z,43.85
2018-12-27T02:00:39.015Z,43.76
2018-12-27T02:01:39.001Z,43.76
2018-12-27T02:02:39.013Z,43.76
2018-12-27T02:03:38.990Z,44.35
2018-12-27T02:04:38.973Z,44.35
2018-12-27T02:05:38.965Z,44.26
2018-12-27T02:06:38.953Z,43.96
2018-12-27T02:07:38.959Z,43.74
2018-12-27T02:08:38.926Z,43.85
2018-12-27T02:09:38.920Z,44.06
2018-12-27T02:10:38.903Z,43.96
2018-12-27T02:11:38.890Z,44.46
2018-12-27T02:12:38.899Z,43.85
2018-12-27T02:13:38.884Z,43.85
2018-12-27T02:14:38.858Z,43.76
2018-12-27T02:15:38.856Z,43.93
2018-12-27T02:16:38.838Z,43.76
2018-12-27T02:17:38.846Z,43.76
2018-12-27T02:18:38.818Z,43.76
2018-12-27T02:19:38.798Z,43.85
2018-12-27T02:20:38.807Z,43.76
2018-12-27T02:21:38.783Z,43.66
2018-12-27T02:22:38.793Z,44.46
2018-12-27T02:23:38.754Z,43.66
2018-12-27T02:24:38.756Z,44.26
2018-12-27T02:25:38.739Z,44.76
2018-12-27T02:26:38.734Z,44.46
2018-12-27T02:27:38.738Z,44.86
2018-12-27T02:28:38.699Z,44.26
2018-12-27T02:29:38.687Z,43.85
2018-12-27T02:30:38.687Z,44.66
2018-12-27T02:31:38.685Z,43.66
2018-12-27T02:32:38.677Z,43.77
2018-12-27T02:33:38.644Z,43.77
2018-12-27T02:34:38.702Z,43.77
2018-12-27T02:35:38.632Z,43.96
2018-12-27T02:36:38.624Z,43.98
2018-12-27T02:37:38.635Z,44.08
2018-12-27T02:38:38.589Z,44.08
2018-12-27T02:39:40.100Z,44.18
2018-12-27T02:40:38.573Z,43.98
2018-12-27T02:41:38.567Z,43.98
2018-12-27T02:42:38.543Z,43.88
2018-12-27T02:43:38.549Z,44.38
2018-12-27T02:44:38.526Z,44.08
2018-12-27T02:45:38.509Z,43.88
2018-12-27T02:46:38.499Z,43.77
2018-12-27T02:47:38.502Z,44.38
2018-12-27T02:48:38.507Z,44.40
2018-12-27T02:49:38.466Z,44.38
2018-12-27T02:50:38.454Z,44.40
2018-12-27T02:51:38.445Z,44.18
2018-12-27T02:52:38.440Z,44.30
2018-12-27T02:53:38.438Z,44.18
2018-12-27T02:54:38.413Z,44.20
2018-12-27T02:55:38.398Z,44.18
2018-12-27T02:56:38.501Z,44.38
2018-12-27T02:57:38.379Z,44.08
2018-12-27T02:58:38.399Z,43.80
2018-12-27T02:59:38.355Z,44.30
2018-12-27T03:00:38.349Z,43.98
2018-12-27T03:01:38.348Z,44.28
2018-12-27T03:02:38.319Z,44.18
2018-12-27T03:03:43.889Z,44.18
2018-12-27T03:04:39.305Z,44.10
2018-12-27T03:05:38.300Z,44.08
2018-12-27T03:06:38.288Z,44.70
2018-12-27T03:07:38.271Z,44.28
2018-12-27T03:08:38.289Z,44.00
2018-12-27T03:09:38.249Z,43.88
2018-12-27T03:10:38.241Z,43.70
2018-12-27T03:11:38.226Z,43.50
2018-12-27T03:12:38.215Z,43.98
2018-12-27T03:13:38.226Z,43.48
2018-12-27T03:14:38.186Z,43.98
2018-12-27T03:15:38.184Z,43.58
2018-12-27T03:16:38.173Z,43.48
2018-12-27T03:17:38.164Z,43.77
2018-12-27T03:18:38.160Z,43.48
2018-12-27T03:19:38.140Z,43.48
2018-12-27T03:20:38.126Z,43.38
2018-12-27T03:21:38.114Z,43.48
2018-12-27T03:22:38.114Z,43.68
2018-12-27T03:23:38.124Z,43.27
2018-12-27T03:24:38.077Z,43.48
2018-12-27T03:25:38.064Z,42.97
2018-12-27T03:26:38.058Z,43.68
2018-12-27T03:27:38.049Z,43.18
2018-12-27T03:28:38.052Z,43.18
2018-12-27T03:29:38.037Z,43.27
2018-12-27T03:30:38.031Z,43.16
2018-12-27T03:31:38.000Z,42.97
2018-12-27T03:32:37.988Z,42.96
2018-12-27T03:33:37.992Z,43.26
2018-12-27T03:34:37.967Z,42.55
2018-12-27T03:35:37.971Z,42.88
2018-12-27T03:36:37.969Z,42.77
2018-12-27T03:37:37.931Z,42.66
2018-12-27T03:38:37.944Z,43.05
2018-12-27T03:39:37.917Z,42.76
2018-12-27T03:40:37.975Z,42.35
2018-12-27T03:41:37.910Z,42.88
2018-12-27T03:42:37.880Z,42.76
2018-12-27T03:43:37.887Z,42.68
2018-12-27T03:44:37.858Z,42.35
2018-12-27T03:45:37.853Z,42.66
2018-12-27T03:46:37.834Z,42.66
2018-12-27T03:47:37.838Z,42.96
2018-12-27T03:48:37.832Z,42.76
2018-12-27T03:49:37.796Z,42.46
2018-12-27T03:50:37.787Z,42.85
2018-12-27T03:51:37.774Z,42.76
2018-12-27T03:52:37.765Z,43.38
2018-12-27T03:53:37.781Z,43.26
2018-12-27T03:54:37.747Z,43.05
2018-12-27T03:55:37.736Z,42.85
2018-12-27T03:56:37.732Z,42.35
2018-12-27T03:57:37.710Z,43.05
2018-12-27T03:58:37.713Z,42.46
2018-12-27T03:59:37.706Z,43.26
2018-12-27T04:00:37.684Z,42.88
2018-12-27T04:01:37.663Z,42.66
2018-12-27T04:02:37.655Z,42.85
2018-12-27T04:03:37.677Z,42.85
2018-12-27T04:04:37.637Z,42.76
2018-12-27T04:05:37.619Z,42.76
2018-12-27T04:06:37.631Z,42.76
2018-12-27T04:07:37.606Z,42.66
2018-12-27T04:08:37.603Z,42.85
2018-12-27T04:09:37.573Z,42.76
2018-12-27T04:10:37.562Z,42.66
2018-12-27T04:11:37.560Z,42.35
2018-12-27T04:12:37.550Z,42.76
2018-12-27T04:13:37.544Z,42.66
2018-12-27T04:14:37.521Z,42.76
2018-12-27T04:15:37.506Z,42.85
2018-12-27T04:16:37.496Z,42.85
2018-12-27T04:17:37.486Z,42.66
2018-12-27T04:18:37.490Z,43.18
2018-12-27T04:19:37.487Z,42.85
2018-12-27T04:20:37.458Z,42.96
2018-12-27T04:21:37.448Z,42.68
2018-12-27T04:22:37.434Z,42.76
2018-12-27T04:23:37.429Z,42.76
2018-12-27T04:24:37.439Z,42.85
2018-12-27T04:25:37.413Z,43.05
2018-12-27T04:26:37.386Z,43.48
2018-12-27T04:27:37.374Z,42.57
2018-12-27T04:28:37.364Z,43.27
2018-12-27T04:29:37.371Z,42.57
2018-12-27T04:30:37.356Z,42.68
2018-12-27T04:31:37.350Z,42.88
2018-12-27T04:32:37.317Z,42.88
2018-12-27T04:33:37.314Z,42.47
2018-12-27T04:34:37.315Z,42.97
2018-12-27T04:35:37.285Z,42.46
2018-12-27T04:36:37.292Z,42.46
2018-12-27T04:37:37.261Z,42.77
2018-12-27T04:38:37.257Z,43.16
2018-12-27T04:39:37.259Z,42.97
2018-12-27T04:40:37.236Z,42.76
2018-12-27T04:41:37.228Z,42.47
2018-12-27T04:42:37.227Z,42.66
2018-12-27T04:43:37.196Z,42.68
2018-12-27T04:44:37.234Z,42.77
2018-12-27T04:45:37.173Z,42.88
2018-12-27T04:46:37.171Z,42.88
2018-12-27T04:47:37.156Z,42.47
2018-12-27T04:48:37.162Z,43.08
2018-12-27T04:49:37.127Z,42.85
2018-12-27T04:50:37.143Z,42.88
2018-12-27T04:51:37.112Z,42.68
2018-12-27T04:52:37.095Z,42.68
2018-12-27T04:53:37.089Z,42.68
2018-12-27T04:54:37.218Z,42.68
2018-12-27T04:55:37.095Z,43.08
2018-12-27T04:56:37.050Z,43.08
2018-12-27T04:57:37.054Z,42.47
2018-12-27T04:58:37.034Z,42.88
2018-12-27T04:59:37.040Z,42.77
2018-12-27T05:00:37.046Z,42.97
2018-12-27T05:01:36.995Z,42.47
2018-12-27T05:02:36.982Z,42.47
2018-12-27T05:03:36.972Z,42.77
2018-12-27T05:04:36.966Z,42.47
2018-12-27T05:05:36.980Z,42.68
2018-12-27T05:06:36.938Z,42.68
2018-12-27T05:07:36.935Z,42.68
2018-12-27T05:08:36.934Z,42.57
2018-12-27T05:09:36.933Z,42.47
2018-12-27T05:10:36.929Z,42.46
2018-12-27T05:11:36.883Z,42.18
2018-12-27T05:12:36.870Z,42.27
2018-12-27T05:13:36.864Z,42.57
2018-12-27T05:14:36.869Z,42.96
2018-12-27T05:15:36.870Z,42.96
2018-12-27T05:16:36.840Z,42.88
2018-12-27T05:17:36.832Z,42.68
2018-12-27T05:18:36.806Z,43.08
2018-12-27T05:19:36.794Z,42.77
2018-12-27T05:20:36.792Z,42.96
2018-12-27T05:21:36.792Z,42.68
2018-12-27T05:22:36.769Z,42.76
2018-12-27T05:23:36.751Z,42.66
2018-12-27T05:24:36.737Z,42.76
2018-12-27T05:25:36.730Z,42.76
2018-12-27T05:26:36.745Z,42.66
2018-12-27T05:27:36.707Z,42.66
2018-12-27T05:28:36.705Z,42.16
2018-12-27T05:29:36.682Z,42.76
2018-12-27T05:30:36.681Z,43.16
2018-12-27T05:31:36.678Z,42.66
2018-12-27T05:32:36.669Z,41.96
2018-12-27T05:33:36.644Z,42.66
2018-12-27T05:34:36.625Z,42.16
2018-12-27T05:35:36.618Z,42.66
2018-12-27T05:36:36.619Z,41.96
2018-12-27T05:37:36.592Z,42.35
2018-12-27T05:38:36.598Z,41.85
2018-12-27T05:39:36.584Z,41.75
2018-12-27T05:40:36.558Z,41.55
2018-12-27T05:41:36.565Z,42.35
2018-12-27T05:42:36.536Z,41.66
2018-12-27T05:43:36.528Z,41.55
2018-12-27T05:44:36.528Z,42.25
2018-12-27T05:45:36.515Z,41.75
2018-12-27T05:46:36.523Z,41.55
2018-12-27T05:47:36.486Z,41.96
2018-12-27T05:48:36.469Z,41.66
2018-12-27T05:49:36.466Z,41.66
2018-12-27T05:50:36.459Z,41.77
2018-12-27T05:51:36.457Z,42.05
2018-12-27T05:52:36.425Z,42.18
2018-12-27T05:53:36.414Z,42.05
2018-12-27T05:54:36.409Z,41.67
2018-12-27T05:55:36.405Z,42.05
2018-12-27T05:56:36.431Z,42.07
2018-12-27T05:57:36.373Z,41.27
2018-12-27T05:58:36.359Z,42.18
2018-12-27T05:59:36.347Z,41.47
2018-12-27T06:00:36.335Z,41.97
2018-12-27T06:01:36.325Z,42.10
2018-12-27T06:02:36.338Z,41.69
2018-12-27T06:03:36.301Z,41.69
2018-12-27T06:04:36.299Z,41.60
2018-12-27T06:05:36.279Z,42.49
2018-12-27T06:06:36.268Z,42.10
2018-12-27T06:07:36.277Z,42.30
2018-12-27T06:08:36.263Z,42.30
2018-12-27T06:09:36.242Z,42.90
2018-12-27T06:10:36.222Z,42.69
2018-12-27T06:11:36.212Z,42.49
2018-12-27T06:12:36.231Z,41.49
2018-12-27T06:13:36.195Z,41.97
2018-12-27T06:14:36.199Z,41.67
2018-12-27T06:15:36.168Z,42.18
2018-12-27T06:16:36.157Z,41.67
2018-12-27T06:17:36.164Z,41.27
2018-12-27T06:18:36.142Z,41.46
2018-12-27T06:19:36.127Z,41.55
2018-12-27T06:20:36.141Z,41.67
2018-12-27T06:21:36.104Z,41.55
2018-12-27T06:22:36.109Z,41.46
2018-12-27T06:23:36.088Z,41.46
2018-12-27T06:24:36.068Z,41.96
2018-12-27T06:25:36.069Z,41.66
2018-12-27T06:26:36.079Z,41.66
2018-12-27T06:27:36.076Z,41.15
2018-12-27T06:28:36.023Z,40.85
2018-12-27T06:29:36.018Z,41.55
2018-12-27T06:30:36.002Z,41.03
2018-12-27T06:31:36.007Z,41.46
2018-12-27T06:32:36.014Z,41.25
2018-12-27T06:33:35.986Z,41.25
2018-12-27T06:34:41.327Z,41.55
2018-12-27T06:35:36.957Z,41.46
2018-12-27T06:36:35.940Z,41.55
2018-12-27T06:37:35.922Z,40.93
2018-12-27T06:38:35.930Z,41.25
2018-12-27T06:39:35.913Z,40.85
2018-12-27T06:40:35.891Z,41.66
2018-12-27T06:41:35.881Z,41.15
2018-12-27T06:42:35.869Z,41.15
2018-12-27T06:43:35.884Z,41.55
2018-12-27T06:44:35.845Z,41.33
2018-12-27T06:45:35.846Z,41.55
2018-12-27T06:46:35.823Z,41.25
2018-12-27T06:47:35.811Z,41.13
2018-12-27T06:48:35.816Z,41.15
2018-12-27T06:49:35.789Z,41.15
2018-12-27T06:50:35.783Z,41.55
2018-12-27T06:51:35.784Z,41.46
2018-12-27T06:52:35.763Z,40.93
2018-12-27T06:53:35.764Z,41.15
2018-12-27T06:54:35.741Z,41.25
2018-12-27T06:55:35.725Z,40.95
2018-12-27T06:56:35.712Z,41.46
2018-12-27T06:57:35.709Z,40.85
2018-12-27T06:58:37.933Z,41.15
2018-12-27T06:59:35.684Z,41.46
2018-12-27T07:00:35.685Z,41.46
2018-12-27T07:01:35.662Z,41.46
2018-12-27T07:02:35.647Z,41.15
2018-12-27T07:03:35.674Z,41.55
2018-12-27T07:04:35.621Z,41.66
2018-12-27T07:05:35.622Z,41.25
2018-12-27T07:06:35.602Z,41.55
2018-12-27T07:07:35.588Z,41.66
2018-12-27T07:08:35.594Z,41.66
2018-12-27T07:09:35.572Z,41.15
2018-12-27T07:10:35.554Z,41.25
2018-12-27T07:11:35.552Z,41.25
2018-12-27T07:12:35.538Z,40.95
2018-12-27T07:13:35.538Z,41.15
2018-12-27T07:14:35.517Z,41.35
2018-12-27T07:15:35.509Z,41.15
2018-12-27T07:16:35.494Z,41.55
2018-12-27T07:17:35.488Z,41.25
2018-12-27T07:18:35.499Z,41.15
2018-12-27T07:19:35.475Z,41.75
2018-12-27T07:20:35.444Z,41.46
2018-12-27T07:21:35.445Z,40.95
2018-12-27T07:22:35.421Z,41.46
2018-12-27T07:23:35.463Z,41.75
2018-12-27T07:24:35.405Z,41.25
2018-12-27T07:25:35.386Z,41.25
2018-12-27T07:26:35.382Z,41.25
2018-12-27T07:27:35.365Z,41.25
2018-12-27T07:28:35.363Z,41.75
2018-12-27T07:29:35.377Z,41.55
2018-12-27T07:30:35.339Z,41.05
2018-12-27T07:31:35.323Z,40.65
2018-12-27T07:32:35.317Z,40.85
2018-12-27T07:33:35.298Z,41.05
2018-12-27T07:34:35.305Z,41.15
2018-12-27T07:35:35.286Z,40.95
2018-12-27T07:36:35.271Z,40.95
2018-12-27T07:37:35.263Z,41.15
2018-12-27T07:38:35.255Z,41.55
2018-12-27T07:39:35.262Z,41.15
2018-12-27T07:40:35.224Z,40.95
2018-12-27T07:41:35.958Z,40.95
2018-12-27T07:42:35.207Z,41.38
2018-12-27T07:43:35.189Z,40.97
2018-12-27T07:44:35.203Z,41.05
2018-12-27T07:45:35.165Z,40.85
2018-12-27T07:46:35.154Z,41.17
2018-12-27T07:47:35.142Z,41.77
2018-12-27T07:48:35.140Z,41.17
2018-12-27T07:49:35.139Z,41.27
2018-12-27T07:50:35.119Z,41.75
2018-12-27T07:51:35.105Z,41.38
2018-12-27T07:52:35.088Z,40.85
2018-12-27T07:53:35.076Z,41.77
2018-12-27T07:54:35.087Z,41.17
2018-12-27T07:55:35.055Z,41.07
2018-12-27T07:56:35.050Z,40.85
2018-12-27T07:57:35.035Z,40.87
2018-12-27T07:58:35.025Z,40.85
2018-12-27T07:59:35.029Z,41.17
2018-12-27T08:00:34.999Z,41.17
2018-12-27T08:01:34.986Z,41.17
2018-12-27T08:02:34.984Z,41.17
2018-12-27T08:03:34.988Z,41.47
2018-12-27T08:04:34.985Z,40.47
2018-12-27T08:05:34.945Z,40.87
2018-12-27T08:06:34.931Z,40.87
2018-12-27T08:07:34.941Z,41.27
2018-12-27T08:08:34.912Z,41.38
2018-12-27T08:09:34.932Z,40.47
2018-12-27T08:10:34.893Z,41.07
2018-12-27T08:11:34.884Z,41.07
2018-12-27T08:12:34.867Z,41.47
2018-12-27T08:13:34.867Z,41.60
2018-12-27T08:14:34.863Z,41.17
2018-12-27T08:15:34.837Z,36.96
2018-12-27T08:16:34.828Z,35.78
2018-12-27T08:17:34.815Z,35.38
2018-12-27T08:18:34.802Z,33.89
2018-12-27T08:19:34.803Z,28.69
2018-12-27T08:20:34.781Z,28.73
2018-12-27T08:21:34.765Z,31.88
2018-12-27T08:22:34.763Z,32.81
2018-12-27T08:23:34.742Z,34.32
2018-12-27T08:24:34.764Z,34.34
2018-12-27T08:25:34.718Z,35.25
2018-12-27T08:26:34.708Z,35.77
2018-12-27T08:27:34.701Z,36.17
2018-12-27T08:28:34.688Z,35.65
2018-12-27T08:29:34.698Z,36.05
2018-12-27T08:30:34.680Z,36.05
2018-12-27T08:31:34.653Z,35.45
2018-12-27T08:32:34.642Z,35.25
2018-12-27T08:33:34.640Z,34.94
2018-12-27T08:34:34.626Z,35.75
2018-12-27T08:35:34.643Z,35.65
2018-12-27T08:36:34.596Z,34.84
2018-12-27T08:37:34.593Z,34.94
2018-12-27T08:38:34.582Z,33.94
2018-12-27T08:39:34.563Z,33.94
2018-12-27T08:40:34.597Z,33.94
2018-12-27T08:41:34.550Z,33.65
2018-12-27T08:42:34.540Z,34.16
2018-12-27T08:43:34.536Z,34.94
2018-12-27T08:44:34.508Z,33.85
2018-12-27T08:45:34.520Z,34.36
2018-12-27T08:46:34.495Z,33.85
2018-12-27T08:47:34.481Z,33.85
2018-12-27T08:48:34.474Z,34.66
2018-12-27T08:49:34.453Z,34.57
2018-12-27T08:50:34.474Z,35.28
2018-12-27T08:51:34.430Z,38.40
2018-12-27T08:52:34.418Z,39.09
2018-12-27T08:53:34.408Z,39.70
2018-12-27T08:54:34.413Z,39.68
2018-12-27T08:55:34.411Z,40.08
2018-12-27T08:56:34.379Z,40.06
2018-12-27T08:57:34.364Z,40.14
2018-12-27T08:58:34.359Z,39.43
2018-12-27T08:59:34.342Z,38.92
2018-12-27T09:00:34.354Z,38.81
2018-12-27T09:01:34.319Z,37.99
2018-12-27T09:02:34.313Z,38.90
2018-12-27T09:03:34.304Z,38.90
2018-12-27T09:04:34.285Z,39.20
2018-12-27T09:05:34.292Z,39.78
2018-12-27T09:06:34.279Z,39.38
2018-12-27T09:07:34.251Z,39.58
2018-12-27T09:08:34.254Z,39.88
2018-12-27T09:09:34.233Z,39.48
2018-12-27T09:10:34.241Z,39.76
2018-12-27T09:11:34.214Z,39.86
2018-12-27T09:12:34.306Z,39.47
2018-12-27T09:13:34.197Z,39.36
2018-12-27T09:14:34.186Z,39.56
2018-12-27T09:15:34.192Z,39.56
2018-12-27T09:16:34.158Z,39.16
2018-12-27T09:17:34.143Z,38.96
2018-12-27T09:18:34.147Z,39.36
2018-12-27T09:19:34.121Z,39.14
2018-12-27T09:20:34.114Z,38.84
2018-12-27T09:21:34.120Z,39.45
2018-12-27T09:22:34.087Z,39.25
2018-12-27T09:23:34.082Z,39.45
2018-12-27T09:24:34.070Z,38.94
2018-12-27T09:25:34.050Z,39.34
2018-12-27T09:26:34.062Z,38.82
2018-12-27T09:27:34.030Z,39.62
2018-12-27T09:28:34.025Z,39.83
2018-12-27T09:29:34.090Z,41.33
2018-12-27T09:30:34.008Z,40.63
2018-12-27T09:31:34.005Z,41.63
2018-12-27T09:32:33.972Z,42.52
2018-12-27T09:33:33.972Z,42.41
2018-12-27T09:34:33.950Z,42.21
2018-12-27T09:35:33.953Z,41.61
2018-12-27T09:36:33.966Z,42.91
2018-12-27T09:37:33.921Z,42.90
2018-12-27T09:38:33.914Z,43.19
2018-12-27T09:39:33.899Z,42.99
2018-12-27T09:40:33.897Z,42.90
2018-12-27T09:41:33.898Z,42.80
2018-12-27T09:42:33.921Z,42.40
2018-12-27T09:43:33.850Z,41.38
2018-12-27T09:44:33.877Z,41.60
2018-12-27T09:45:33.829Z,41.29
2018-12-27T09:46:33.833Z,41.88
2018-12-27T09:47:33.806Z,41.17
2018-12-27T09:48:33.806Z,41.38
2018-12-27T09:49:33.787Z,40.77
2018-12-27T09:50:33.782Z,41.47
2018-12-27T09:51:33.791Z,41.07
2018-12-27T09:52:33.759Z,40.37
2018-12-27T09:53:33.736Z,40.57
2018-12-27T09:54:33.732Z,39.77
2018-12-27T09:55:33.716Z,40.07
2018-12-27T09:56:33.723Z,39.97
2018-12-27T09:57:33.694Z,40.27
2018-12-27T09:58:33.693Z,40.17
2018-12-27T09:59:33.669Z,39.77
2018-12-27T10:00:33.659Z,39.57
2018-12-27T10:01:33.677Z,39.67
2018-12-27T10:02:33.635Z,39.77
2018-12-27T10:03:33.637Z,39.87
2018-12-27T10:04:33.616Z,40.27
2018-12-27T10:05:34.267Z,40.17
2018-12-27T10:06:34.421Z,39.97
2018-12-27T10:07:33.581Z,39.87
2018-12-27T10:08:33.578Z,39.87
2018-12-27T10:09:33.584Z,40.27
2018-12-27T10:10:33.703Z,39.97
2018-12-27T10:11:33.706Z,40.47
2018-12-27T10:12:33.547Z,40.57
2018-12-27T10:13:33.859Z,40.47
2018-12-27T10:14:33.509Z,40.67
2018-12-27T10:15:33.503Z,40.77
2018-12-27T10:16:33.495Z,40.47
2018-12-27T10:17:33.473Z,39.87
2018-12-27T10:18:33.471Z,39.67
2018-12-27T10:19:33.468Z,40.15
2018-12-27T10:20:33.436Z,40.47
2018-12-27T10:21:33.525Z,40.77
2018-12-27T10:22:33.417Z,41.05
2018-12-27T10:23:33.434Z,41.15
2018-12-27T10:24:33.436Z,41.05
2018-12-27T10:25:33.380Z,41.15
2018-12-27T10:26:33.370Z,41.66
2018-12-27T10:27:33.683Z,41.85
2018-12-27T10:28:33.351Z,41.46
2018-12-27T10:29:33.341Z,41.55
2018-12-27T10:30:33.335Z,41.05
2018-12-27T10:31:33.320Z,41.43
2018-12-27T10:32:33.324Z,41.63
2018-12-27T10:33:33.292Z,41.63
2018-12-27T10:34:33.286Z,41.43
2018-12-27T10:35:33.276Z,41.24
2018-12-27T10:36:33.281Z,41.13
2018-12-27T10:37:33.280Z,40.83
2018-12-27T10:38:33.237Z,41.03
2018-12-27T10:39:33.225Z,40.83
2018-12-27T10:40:33.216Z,41.11
2018-12-27T10:41:33.212Z,41.11
2018-12-27T10:42:33.229Z,41.02
2018-12-27T10:43:33.187Z,41.11
2018-12-27T10:44:33.170Z,40.52
2018-12-27T10:45:33.160Z,40.50
2018-12-27T10:46:33.150Z,40.52
2018-12-27T10:47:33.159Z,40.50
2018-12-27T10:48:33.138Z,40.39
2018-12-27T10:49:33.118Z,40.39
2018-12-27T10:50:33.112Z,39.69
2018-12-27T10:51:33.098Z,40.00
2018-12-27T10:52:33.105Z,39.50
2018-12-27T10:53:33.073Z,40.67
2018-12-27T10:54:33.062Z,40.00
2018-12-27T10:55:33.063Z,39.37
2018-12-27T10:56:33.038Z,39.28
2018-12-27T10:57:34.852Z,39.18
2018-12-27T10:58:33.017Z,39.18
2018-12-27T10:59:33.007Z,39.37
2018-12-27T11:00:32.998Z,38.98
2018-12-27T11:01:32.986Z,40.08
2018-12-27T11:02:33.004Z,39.89
2018-12-27T11:03:32.964Z,40.09
2018-12-27T11:04:32.956Z,39.39
2018-12-27T11:05:32.941Z,39.18
2018-12-27T11:06:32.934Z,39.20
2018-12-27T11:07:32.957Z,39.29
2018-12-27T11:08:32.945Z,39.29
2018-12-27T11:09:32.905Z,39.29
2018-12-27T11:10:32.888Z,39.29
2018-12-27T11:11:32.877Z,39.39
2018-12-27T11:12:32.874Z,39.29
2018-12-27T11:13:33.017Z,39.39
2018-12-27T11:14:32.856Z,39.29
2018-12-27T11:15:32.848Z,39.59
2018-12-27T11:16:32.823Z,39.29
2018-12-27T11:17:32.816Z,39.41
2018-12-27T11:18:32.820Z,39.22
2018-12-27T11:19:32.821Z,39.00
2018-12-27T11:20:32.780Z,39.22
2018-12-27T11:21:32.776Z,39.22
2018-12-27T11:22:32.769Z,39.41
2018-12-27T11:23:32.865Z,38.81
2018-12-27T11:24:32.743Z,40.22
2018-12-27T11:25:32.804Z,40.50
2018-12-27T11:26:32.715Z,39.89
2018-12-27T11:27:32.705Z,40.30
2018-12-27T11:28:32.737Z,40.09
2018-12-27T11:29:32.685Z,39.81
2018-12-27T11:30:32.685Z,39.50
2018-12-27T11:31:32.668Z,39.89
2018-12-27T11:32:32.651Z,39.31
2018-12-27T11:33:32.657Z,39.89
2018-12-27T11:34:32.646Z,40.30
2018-12-27T11:35:32.621Z,40.19
2018-12-27T11:36:32.621Z,39.61
2018-12-27T11:37:32.597Z,39.79
2018-12-27T11:38:32.603Z,39.59
2018-12-27T11:39:32.671Z,39.51
2018-12-27T11:40:32.567Z,39.31
2018-12-27T11:41:32.563Z,39.72
2018-12-27T11:42:32.554Z,39.79
2018-12-27T11:43:32.564Z,39.72
2018-12-27T11:44:32.522Z,39.79
2018-12-27T11:45:32.517Z,39.81
2018-12-27T11:46:32.509Z,40.11
2018-12-27T11:47:32.503Z,39.81
2018-12-27T11:48:32.501Z,39.72
2018-12-27T11:49:32.468Z,40.11
2018-12-27T11:50:32.463Z,40.11
2018-12-27T11:51:32.447Z,40.11
2018-12-27T11:52:32.441Z,40.01
2018-12-27T11:53:32.477Z,40.01
2018-12-27T11:54:32.414Z,39.91
2018-12-27T11:55:32.408Z,40.41
2018-12-27T11:56:32.390Z,39.41
2018-12-27T11:57:32.387Z,39.72
2018-12-27T11:58:32.379Z,39.72
2018-12-27T11:59:32.378Z,39.91
2018-12-27T12:00:32.355Z,40.01
2018-12-27T12:01:32.412Z,39.72
2018-12-27T12:02:32.333Z,39.91
2018-12-27T12:03:32.313Z,40.11
2018-12-27T12:04:32.373Z,39.91
2018-12-27T12:05:32.297Z,40.11
2018-12-27T12:06:32.285Z,39.91
2018-12-27T12:07:32.270Z,40.11
2018-12-27T12:08:32.267Z,39.91
2018-12-27T12:09:32.267Z,40.22
2018-12-27T12:10:32.246Z,40.01
2018-12-27T12:11:32.241Z,40.01
2018-12-27T12:12:32.218Z,40.22
2018-12-27T12:13:32.213Z,39.91
2018-12-27T12:14:32.210Z,40.11
2018-12-27T12:15:32.203Z,39.81
2018-12-27T12:16:32.186Z,39.51
2018-12-27T12:17:32.171Z,39.72
2018-12-27T12:18:32.151Z,39.81
2018-12-27T12:19:32.166Z,40.41
2018-12-27T12:20:32.135Z,40.81
2018-12-27T12:21:32.129Z,40.52
2018-12-27T12:22:32.126Z,40.91
2018-12-27T12:23:32.097Z,40.41
2018-12-27T12:24:32.114Z,40.81
2018-12-27T12:25:32.075Z,40.81
2018-12-27T12:26:32.080Z,41.21
2018-12-27T12:27:32.055Z,41.09
2018-12-27T12:28:32.057Z,40.89
2018-12-27T12:29:32.059Z,40.89
2018-12-27T12:30:32.020Z,41.11
2018-12-27T12:31:32.013Z,40.89
2018-12-27T12:32:31.997Z,41.19
2018-12-27T12:33:31.988Z,41.19
2018-12-27T12:34:31.995Z,41.19
2018-12-27T12:35:31.973Z,41.49
2018-12-27T12:36:31.957Z,41.19
2018-12-27T12:37:31.944Z,41.39
2018-12-27T12:38:31.934Z,41.39
2018-12-27T12:39:31.939Z,41.60
2018-12-27T12:40:31.931Z,41.49
2018-12-27T12:41:31.904Z,41.60
2018-12-27T12:42:33.161Z,41.39
2018-12-27T12:43:31.879Z,41.39
2018-12-27T12:44:31.883Z,41.19
2018-12-27T12:45:31.860Z,41.39
2018-12-27T12:46:31.870Z,41.47
2018-12-27T12:47:31.837Z,41.38
2018-12-27T12:48:31.824Z,41.47
2018-12-27T12:49:31.821Z,41.38
2018-12-27T12:50:31.820Z,41.08
2018-12-27T12:51:31.802Z,41.17
2018-12-27T12:52:31.805Z,40.97